createdAt,value
2018-09-12T00:00:21.911Z,944.07
2018-09-12T00:01:21.879Z,944.08
2018-09-12T00:02:21.880Z,944.05
2018-09-12T00:03:21.851Z,944.04
2018-09-12T00:04:21.853Z,944.09
2018-09-12T00:05:21.895Z,944.06
2018-09-12T00:06:21.892Z,944.06
2018-09-12T00:07:21.818Z,944.04
2018-09-12T00:08:21.807Z,944.04
2018-09-12T00:09:21.841Z,943.99
2018-09-12T00:10:21.796Z,944.05
2018-09-12T00:11:21.787Z,944.05
2018-09-12T00:12:21.751Z,944.03
2018-09-12T00:13:21.766Z,944.06
2018-09-12T00:14:21.729Z,944.07
2018-09-12T00:15:21.747Z,944.07
2018-09-12T00:16:21.702Z,944.04
2018-09-12T00:17:21.693Z,944.07
2018-09-12T00:18:21.696Z,944.03
2018-09-12T00:19:21.678Z,943.99
2018-09-12T00:20:21.676Z,944.01
2018-09-12T00:21:21.645Z,943.99
2018-09-12T00:22:21.633Z,943.95
2018-09-12T00:23:21.675Z,943.97
2018-09-12T00:24:21.609Z,943.97
2018-09-12T00:25:21.624Z,943.97
2018-09-12T00:26:21.601Z,943.92
2018-09-12T00:27:21.615Z,943.90
2018-09-12T00:28:21.612Z,943.91
2018-09-12T00:29:21.560Z,943.98
2018-09-12T00:30:21.591Z,943.92
2018-09-12T00:31:21.564Z,943.91
2018-09-12T00:32:21.529Z,943.95
2018-09-12T00:33:21.555Z,943.92
2018-09-12T00:34:21.547Z,943.94
2018-09-12T00:35:21.545Z,943.89
2018-09-12T00:36:21.488Z,943.91
2018-09-12T00:37:21.479Z,943.91
2018-09-12T00:38:21.466Z,943.93
2018-09-12T00:39:21.441Z,943.91
2018-09-12T00:40:21.469Z,943.86
2018-09-12T00:41:21.464Z,943.89
2018-09-12T00:42:21.415Z,943.89
2018-09-12T00:43:21.424Z,943.88
2018-09-12T00:44:21.393Z,943.87
2018-09-12T00:45:21.397Z,943.89
2018-09-12T00:46:21.376Z,943.89
2018-09-12T00:47:21.354Z,943.89
2018-09-12T00:48:21.352Z,943.86
2018-09-12T00:49:21.350Z,943.92
2018-09-12T00:50:21.448Z,943.93
2018-09-12T00:51:21.319Z,943.90
2018-09-12T00:52:21.318Z,943.92
2018-09-12T00:53:21.311Z,943.93
2018-09-12T00:54:21.292Z,943.92
2018-09-12T00:55:21.294Z,943.93
2018-09-12T00:56:21.308Z,943.95
2018-09-12T00:57:21.263Z,943.90
2018-09-12T00:58:21.246Z,943.94
2018-09-12T00:59:21.226Z,943.92
2018-09-12T01:00:21.229Z,943.91
2018-09-12T01:01:21.195Z,943.88
2018-09-12T01:02:21.196Z,943.87
2018-09-12T01:03:21.184Z,943.87
2018-09-12T01:04:21.157Z,943.82
2018-09-12T01:05:21.224Z,943.81
2018-09-12T01:06:21.155Z,943.81
2018-09-12T01:07:21.125Z,943.85
2018-09-12T01:08:21.117Z,943.83
2018-09-12T01:09:21.144Z,943.83
2018-09-12T01:10:21.146Z,943.82
2018-09-12T01:11:21.088Z,943.80
2018-09-12T01:12:21.102Z,943.82
2018-09-12T01:13:21.066Z,943.79
2018-09-12T01:14:21.051Z,943.81
2018-09-12T01:15:21.105Z,943.78
2018-09-12T01:16:21.030Z,943.79
2018-09-12T01:17:21.025Z,943.81
2018-09-12T01:18:21.069Z,943.78
2018-09-12T01:19:21.018Z,943.78
2018-09-12T01:20:21.009Z,943.81
2018-09-12T01:21:20.994Z,943.76
2018-09-12T01:22:20.959Z,943.77
2018-09-12T01:23:20.952Z,943.77
2018-09-12T01:24:20.970Z,943.77
2018-09-12T01:25:20.963Z,943.72
2018-09-12T01:26:20.945Z,943.70
2018-09-12T01:27:20.915Z,943.65
2018-09-12T01:28:20.928Z,943.64
2018-09-12T01:29:20.887Z,943.64
2018-09-12T01:30:20.903Z,943.60
2018-09-12T01:31:20.899Z,943.59
2018-09-12T01:32:20.885Z,943.58
2018-09-12T01:33:20.917Z,943.54
2018-09-12T01:34:20.834Z,943.57
2018-09-12T01:35:20.845Z,943.52
2018-09-12T01:36:20.875Z,943.49
2018-09-12T01:37:20.837Z,943.49
2018-09-12T01:38:20.822Z,943.47
2018-09-12T01:39:20.780Z,943.42
2018-09-12T01:40:20.813Z,943.43
2018-09-12T01:41:20.766Z,943.41
2018-09-12T01:42:20.736Z,943.44
2018-09-12T01:43:20.729Z,943.38
2018-09-12T01:44:20.729Z,943.33
2018-09-12T01:45:20.718Z,943.34
2018-09-12T01:46:20.732Z,943.31
2018-09-12T01:47:20.680Z,943.31
2018-09-12T01:48:20.664Z,943.32
2018-09-12T01:49:20.668Z,943.29
2018-09-12T01:50:20.644Z,943.25
2018-09-12T01:51:20.660Z,943.27
2018-09-12T01:52:20.642Z,943.28
2018-09-12T01:53:20.615Z,943.25
2018-09-12T01:54:20.615Z,943.26
2018-09-12T01:55:20.613Z,943.20
2018-09-12T01:56:20.605Z,943.24
2018-09-12T01:57:20.580Z,943.23
2018-09-12T01:58:20.548Z,943.23
2018-09-12T01:59:20.549Z,943.24
2018-09-12T02:00:20.553Z,943.23
2018-09-12T02:01:20.543Z,943.25
2018-09-12T02:02:20.512Z,943.28
2018-09-12T02:03:20.502Z,943.28
2018-09-12T02:04:20.546Z,943.31
2018-09-12T02:05:20.470Z,943.29
2018-09-12T02:06:20.507Z,943.29
2018-09-12T02:07:20.451Z,943.21
2018-09-12T02:08:20.437Z,943.21
2018-09-12T02:09:20.496Z,943.13
2018-09-12T02:10:20.427Z,943.18
2018-09-12T02:11:20.426Z,943.15
2018-09-12T02:12:20.392Z,943.09
2018-09-12T02:13:20.423Z,943.18
2018-09-12T02:14:20.418Z,943.14
2018-09-12T02:15:20.360Z,943.14
2018-09-12T02:16:20.407Z,943.13
2018-09-12T02:17:20.407Z,943.10
2018-09-12T02:18:20.338Z,943.10
2018-09-12T02:19:20.408Z,943.05
2018-09-12T02:20:20.318Z,943.09
2018-09-12T02:21:20.319Z,943.14
2018-09-12T02:22:20.339Z,943.07
2018-09-12T02:23:20.280Z,943.09
2018-09-12T02:24:20.266Z,943.09
2018-09-12T02:25:20.267Z,943.07
2018-09-12T02:26:20.269Z,943.04
2018-09-12T02:27:20.267Z,943.04
2018-09-12T02:28:20.221Z,943.04
2018-09-12T02:29:20.210Z,943.04
2018-09-12T02:30:20.198Z,943.01
2018-09-12T02:31:20.203Z,943.00
2018-09-12T02:32:20.183Z,943.02
2018-09-12T02:33:20.226Z,943.01
2018-09-12T02:34:20.163Z,943.02
2018-09-12T02:35:20.150Z,943.03
2018-09-12T02:36:20.163Z,942.96
2018-09-12T02:37:20.136Z,942.97
2018-09-12T02:38:20.142Z,942.94
2018-09-12T02:39:20.104Z,943.03
2018-09-12T02:40:20.120Z,942.94
2018-09-12T02:41:20.100Z,942.94
2018-09-12T02:42:20.066Z,942.94
2018-09-12T02:43:20.055Z,942.90
2018-09-12T02:44:20.032Z,942.93
2018-09-12T02:45:20.031Z,942.88
2018-09-12T02:46:20.085Z,942.92
2018-09-12T02:47:20.019Z,942.92
2018-09-12T02:48:19.995Z,942.91
2018-09-12T02:49:19.988Z,942.92
2018-09-12T02:50:19.982Z,942.92
2018-09-12T02:51:20.024Z,942.95
2018-09-12T02:52:19.955Z,942.92
2018-09-12T02:53:19.969Z,942.92
2018-09-12T02:54:19.947Z,942.92
2018-09-12T02:55:19.925Z,942.94
2018-09-12T02:56:19.953Z,942.88
2018-09-12T02:57:19.946Z,942.91
2018-09-12T02:58:19.902Z,942.89
2018-09-12T02:59:19.868Z,942.88
2018-09-12T03:00:19.860Z,942.88
2018-09-12T03:01:19.845Z,942.85
2018-09-12T03:02:19.857Z,942.83
2018-09-12T03:03:19.843Z,942.85
2018-09-12T03:04:19.820Z,942.81
2018-09-12T03:05:19.833Z,942.84
2018-09-12T03:06:19.793Z,942.85
2018-09-12T03:07:19.799Z,942.82
2018-09-12T03:08:19.780Z,942.80
2018-09-12T03:09:19.796Z,942.78
2018-09-12T03:10:19.744Z,942.76
2018-09-12T03:11:19.752Z,942.79
2018-09-12T03:12:19.733Z,942.82
2018-09-12T03:13:19.703Z,942.81
2018-09-12T03:14:19.776Z,942.80
2018-09-12T03:15:19.704Z,942.75
2018-09-12T03:16:19.686Z,942.78
2018-09-12T03:17:19.685Z,942.79
2018-09-12T03:18:19.674Z,942.78
2018-09-12T03:19:19.646Z,942.79
2018-09-12T03:20:19.640Z,942.82
2018-09-12T03:21:19.646Z,942.79
2018-09-12T03:22:19.641Z,942.81
2018-09-12T03:23:19.606Z,942.77
2018-09-12T03:24:19.605Z,942.79
2018-09-12T03:25:19.588Z,942.80
2018-09-12T03:26:19.584Z,942.74
2018-09-12T03:27:19.573Z,942.73
2018-09-12T03:28:19.546Z,942.70
2018-09-12T03:29:19.541Z,942.71
2018-09-12T03:30:19.526Z,942.72
2018-09-12T03:31:19.510Z,942.63
2018-09-12T03:32:19.508Z,942.69
2018-09-12T03:33:19.493Z,942.67
2018-09-12T03:34:19.481Z,942.61
2018-09-12T03:35:19.468Z,942.64
2018-09-12T03:36:19.475Z,942.63
2018-09-12T03:37:19.465Z,942.61
2018-09-12T03:38:19.455Z,942.61
2018-09-12T03:39:19.445Z,942.58
2018-09-12T03:40:19.414Z,942.57
2018-09-12T03:41:19.417Z,942.56
2018-09-12T03:42:19.410Z,942.59
2018-09-12T03:43:19.380Z,942.55
2018-09-12T03:44:19.369Z,942.54
2018-09-12T03:45:19.354Z,942.56
2018-09-12T03:46:19.349Z,942.55
2018-09-12T03:47:19.349Z,942.58
2018-09-12T03:48:19.330Z,942.56
2018-09-12T03:49:19.310Z,942.52
2018-09-12T03:50:19.335Z,942.51
2018-09-12T03:51:19.286Z,942.49
2018-09-12T03:52:19.312Z,942.44
2018-09-12T03:53:19.271Z,942.46
2018-09-12T03:54:19.251Z,942.42
2018-09-12T03:55:19.250Z,942.41
2018-09-12T03:56:19.230Z,942.43
2018-09-12T03:57:19.247Z,942.45
2018-09-12T03:58:19.222Z,942.38
2018-09-12T03:59:19.206Z,942.40
2018-09-12T04:00:19.204Z,942.40
2018-09-12T04:01:19.189Z,942.39
2018-09-12T04:02:19.204Z,942.40
2018-09-12T04:03:19.169Z,942.41
2018-09-12T04:04:19.142Z,942.37
2018-09-12T04:05:19.167Z,942.38
2018-09-12T04:06:19.124Z,942.36
2018-09-12T04:07:19.141Z,942.36
2018-09-12T04:08:19.124Z,942.38
2018-09-12T04:09:19.095Z,942.37
2018-09-12T04:10:19.076Z,942.33
2018-09-12T04:11:19.073Z,942.32
2018-09-12T04:12:19.098Z,942.34
2018-09-12T04:13:19.121Z,942.33
2018-09-12T04:14:19.035Z,942.38
2018-09-12T04:15:19.047Z,942.36
2018-09-12T04:16:19.051Z,942.36
2018-09-12T04:17:18.991Z,942.39
2018-09-12T04:18:19.012Z,942.39
2018-09-12T04:19:18.981Z,942.39
2018-09-12T04:20:18.973Z,942.39
2018-09-12T04:21:18.969Z,942.40
2018-09-12T04:22:18.949Z,942.38
2018-09-12T04:23:18.938Z,942.41
2018-09-12T04:24:18.943Z,942.45
2018-09-12T04:25:18.897Z,942.42
2018-09-12T04:26:18.893Z,942.45
2018-09-12T04:27:18.876Z,942.37
2018-09-12T04:28:18.884Z,942.42
2018-09-12T04:29:18.861Z,942.38
2018-09-12T04:30:18.842Z,942.41
2018-09-12T04:31:18.832Z,942.46
2018-09-12T04:32:18.821Z,942.46
2018-09-12T04:33:18.826Z,942.42
2018-09-12T04:34:18.803Z,942.40
2018-09-12T04:35:18.792Z,942.41
2018-09-12T04:36:18.780Z,942.38
2018-09-12T04:37:18.779Z,942.45
2018-09-12T04:38:18.786Z,942.41
2018-09-12T04:39:18.744Z,942.43
2018-09-12T04:40:18.738Z,942.39
2018-09-12T04:41:18.722Z,942.36
2018-09-12T04:42:18.709Z,942.42
2018-09-12T04:43:18.720Z,942.38
2018-09-12T04:44:18.696Z,942.42
2018-09-12T04:45:18.682Z,942.44
2018-09-12T04:46:18.664Z,942.43
2018-09-12T04:47:18.655Z,942.42
2018-09-12T04:48:18.694Z,942.42
2018-09-12T04:49:18.638Z,942.44
2018-09-12T04:50:18.620Z,942.44
2018-09-12T04:51:18.622Z,942.45
2018-09-12T04:52:18.597Z,942.45
2018-09-12T04:53:18.602Z,942.45
2018-09-12T04:54:18.579Z,942.46
2018-09-12T04:55:18.564Z,942.45
2018-09-12T04:56:18.556Z,942.45
2018-09-12T04:57:18.549Z,942.41
2018-09-12T04:58:18.546Z,942.44
2018-09-12T04:59:18.518Z,942.43
2018-09-12T05:00:18.511Z,942.44
2018-09-12T05:01:18.497Z,942.44
2018-09-12T05:02:18.485Z,942.48
2018-09-12T05:03:18.502Z,942.48
2018-09-12T05:04:18.462Z,942.44
2018-09-12T05:05:18.453Z,942.49
2018-09-12T05:06:18.440Z,942.49
2018-09-12T05:07:18.429Z,942.47
2018-09-12T05:08:18.434Z,942.49
2018-09-12T05:09:18.414Z,942.49
2018-09-12T05:10:18.493Z,942.46
2018-09-12T05:11:18.383Z,942.46
2018-09-12T05:12:18.373Z,942.42
2018-09-12T05:13:18.376Z,942.42
2018-09-12T05:14:18.348Z,942.41
2018-09-12T05:15:18.351Z,942.42
2018-09-12T05:16:18.326Z,942.41
2018-09-12T05:17:18.315Z,942.44
2018-09-12T05:18:18.319Z,942.43
2018-09-12T05:19:18.296Z,942.43
2018-09-12T05:20:18.286Z,942.44
2018-09-12T05:21:18.278Z,942.42
2018-09-12T05:22:18.259Z,942.43
2018-09-12T05:23:18.269Z,942.39
2018-09-12T05:24:18.239Z,942.34
2018-09-12T05:25:18.232Z,942.35
2018-09-12T05:26:18.215Z,942.35
2018-09-12T05:27:18.220Z,942.33
2018-09-12T05:28:18.209Z,942.36
2018-09-12T05:29:18.182Z,942.40
2018-09-12T05:30:18.178Z,942.33
2018-09-12T05:31:18.159Z,942.34
2018-09-12T05:32:18.149Z,942.39
2018-09-12T05:33:18.160Z,942.34
2018-09-12T05:34:18.127Z,942.36
2018-09-12T05:35:18.112Z,942.38
2018-09-12T05:36:18.137Z,942.39
2018-09-12T05:37:18.090Z,942.37
2018-09-12T05:38:18.109Z,942.37
2018-09-12T05:39:18.075Z,942.42
2018-09-12T05:40:18.059Z,942.41
2018-09-12T05:41:18.045Z,942.42
2018-09-12T05:42:18.033Z,942.41
2018-09-12T05:43:18.023Z,942.43
2018-09-12T05:44:18.030Z,942.38
2018-09-12T05:45:18.010Z,942.36
2018-09-12T05:46:17.991Z,942.36
2018-09-12T05:47:17.978Z,942.37
2018-09-12T05:48:17.968Z,942.35
2018-09-12T05:49:17.972Z,942.34
2018-09-12T05:50:18.023Z,942.32
2018-09-12T05:51:17.943Z,942.33
2018-09-12T05:52:17.921Z,942.36
2018-09-12T05:53:17.910Z,942.35
2018-09-12T05:54:17.925Z,942.29
2018-09-12T05:55:17.888Z,942.34
2018-09-12T05:56:17.875Z,942.29
2018-09-12T05:57:17.871Z,942.30
2018-09-12T05:58:17.853Z,942.29
2018-09-12T05:59:17.857Z,942.34
2018-09-12T06:00:17.832Z,942.30
2018-09-12T06:01:17.823Z,942.33
2018-09-12T06:02:17.809Z,942.32
2018-09-12T06:03:17.810Z,942.35
2018-09-12T06:04:17.804Z,942.33
2018-09-12T06:05:17.777Z,942.33
2018-09-12T06:06:17.815Z,942.31
2018-09-12T06:07:17.837Z,942.29
2018-09-12T06:08:17.742Z,942.28
2018-09-12T06:09:17.756Z,942.31
2018-09-12T06:10:17.722Z,942.35
2018-09-12T06:11:17.707Z,942.29
2018-09-12T06:12:17.700Z,942.33
2018-09-12T06:13:17.685Z,942.35
2018-09-12T06:14:17.698Z,942.34
2018-09-12T06:15:17.668Z,942.32
2018-09-12T06:16:17.651Z,942.35
2018-09-12T06:17:17.640Z,942.39
2018-09-12T06:18:17.627Z,942.38
2018-09-12T06:19:17.636Z,942.34
2018-09-12T06:20:17.607Z,942.41
2018-09-12T06:21:17.606Z,942.44
2018-09-12T06:22:17.583Z,942.41
2018-09-12T06:23:17.571Z,942.42
2018-09-12T06:24:17.577Z,942.40
2018-09-12T06:25:17.554Z,942.37
2018-09-12T06:26:17.563Z,942.43
2018-09-12T06:27:17.544Z,942.40
2018-09-12T06:28:17.523Z,942.41
2018-09-12T06:29:17.560Z,942.43
2018-09-12T06:30:17.493Z,942.39
2018-09-12T06:31:17.487Z,942.39
2018-09-12T06:32:17.474Z,942.41
2018-09-12T06:33:17.471Z,942.41
2018-09-12T06:34:17.465Z,942.41
2018-09-12T06:35:17.441Z,942.42
2018-09-12T06:36:17.426Z,942.38
2018-09-12T06:37:17.421Z,942.42
2018-09-12T06:38:17.464Z,942.36
2018-09-12T06:39:17.436Z,942.38
2018-09-12T06:40:17.378Z,942.45
2018-09-12T06:41:17.368Z,942.40
2018-09-12T06:42:17.356Z,942.44
2018-09-12T06:43:17.346Z,942.35
2018-09-12T06:44:17.360Z,942.38
2018-09-12T06:45:17.325Z,942.38
2018-09-12T06:46:17.312Z,942.38
2018-09-12T06:47:17.300Z,942.38
2018-09-12T06:48:17.289Z,942.36
2018-09-12T06:49:17.295Z,942.35
2018-09-12T06:50:17.287Z,942.31
2018-09-12T06:51:17.258Z,942.35
2018-09-12T06:52:17.249Z,942.32
2018-09-12T06:53:17.234Z,942.31
2018-09-12T06:54:17.240Z,942.30
2018-09-12T06:55:17.211Z,942.32
2018-09-12T06:56:17.206Z,942.32
2018-09-12T06:57:17.190Z,942.32
2018-09-12T06:58:17.176Z,942.32
2018-09-12T06:59:17.179Z,942.32
2018-09-12T07:00:17.153Z,942.29
2018-09-12T07:01:17.147Z,942.29
2018-09-12T07:02:17.137Z,942.27
2018-09-12T07:03:17.120Z,942.28
2018-09-12T07:04:17.123Z,942.33
2018-09-12T07:05:17.098Z,942.33
2018-09-12T07:06:17.086Z,942.31
2018-09-12T07:07:17.085Z,942.32
2018-09-12T07:08:17.062Z,942.32
2018-09-12T07:09:17.107Z,942.32
2018-09-12T07:10:17.045Z,942.31
2018-09-12T07:11:17.032Z,942.33
2018-09-12T07:12:17.024Z,942.32
2018-09-12T07:13:17.007Z,942.35
2018-09-12T07:14:17.117Z,942.35
2018-09-12T07:15:17.000Z,942.34
2018-09-12T07:16:16.980Z,942.35
2018-09-12T07:17:16.964Z,942.34
2018-09-12T07:18:16.954Z,942.39
2018-09-12T07:19:16.938Z,942.39
2018-09-12T07:20:16.946Z,942.39
2018-09-12T07:21:16.916Z,942.41
2018-09-12T07:22:16.912Z,942.41
2018-09-12T07:23:16.896Z,942.40
2018-09-12T07:24:16.913Z,942.45
2018-09-12T07:25:16.893Z,942.41
2018-09-12T07:26:16.865Z,942.43
2018-09-12T07:27:16.850Z,942.46
2018-09-12T07:28:16.846Z,942.45
2018-09-12T07:29:16.837Z,942.49
2018-09-12T07:30:16.834Z,942.45
2018-09-12T07:31:16.807Z,942.44
2018-09-12T07:32:16.799Z,942.43
2018-09-12T07:33:16.783Z,942.47
2018-09-12T07:34:16.786Z,942.50
2018-09-12T07:35:16.783Z,942.46
2018-09-12T07:36:16.751Z,942.46
2018-09-12T07:37:16.738Z,942.46
2018-09-12T07:38:16.727Z,942.47
2018-09-12T07:39:16.718Z,942.45
2018-09-12T07:40:16.725Z,942.47
2018-09-12T07:41:16.697Z,942.48
2018-09-12T07:42:16.687Z,942.53
2018-09-12T07:43:16.672Z,942.51
2018-09-12T07:44:16.660Z,942.53
2018-09-12T07:45:16.665Z,942.53
2018-09-12T07:46:16.649Z,942.55
2018-09-12T07:47:16.627Z,942.53
2018-09-12T07:48:16.618Z,942.58
2018-09-12T07:49:16.607Z,942.63
2018-09-12T07:50:16.612Z,942.60
2018-09-12T07:51:16.588Z,942.61
2018-09-12T07:52:16.586Z,942.63
2018-09-12T07:53:16.563Z,942.62
2018-09-12T07:54:16.551Z,942.63
2018-09-12T07:55:16.623Z,942.64
2018-09-12T07:56:16.611Z,942.62
2018-09-12T07:57:16.523Z,942.62
2018-09-12T07:58:16.517Z,942.65
2018-09-12T07:59:16.495Z,942.59
2018-09-12T08:00:16.849Z,942.61
2018-09-12T08:01:16.473Z,942.55
2018-09-12T08:02:16.465Z,942.58
2018-09-12T08:03:16.451Z,942.56
2018-09-12T08:04:16.449Z,942.61
2018-09-12T08:05:16.554Z,942.61
2018-09-12T08:06:16.425Z,942.62
2018-09-12T08:07:16.405Z,942.65
2018-09-12T08:08:16.399Z,942.66
2018-09-12T08:09:16.385Z,942.65
2018-09-12T08:10:16.400Z,942.65
2018-09-12T08:11:16.360Z,942.63
2018-09-12T08:12:16.353Z,942.62
2018-09-12T08:13:16.343Z,942.65
2018-09-12T08:14:16.327Z,942.63
2018-09-12T08:15:16.335Z,942.64
2018-09-12T08:16:16.316Z,942.61
2018-09-12T08:17:16.294Z,942.60
2018-09-12T08:18:16.287Z,942.61
2018-09-12T08:19:16.276Z,942.63
2018-09-12T08:20:16.280Z,942.67
2018-09-12T08:21:16.256Z,942.62
2018-09-12T08:22:16.246Z,942.63
2018-09-12T08:23:16.246Z,942.62
2018-09-12T08:24:16.221Z,942.63
2018-09-12T08:25:16.224Z,942.63
2018-09-12T08:26:16.232Z,942.61
2018-09-12T08:27:16.181Z,942.62
2018-09-12T08:28:16.176Z,942.66
2018-09-12T08:29:16.165Z,942.65
2018-09-12T08:30:16.164Z,942.63
2018-09-12T08:31:16.137Z,942.62
2018-09-12T08:32:16.127Z,942.64
2018-09-12T08:33:16.135Z,942.63
2018-09-12T08:34:16.115Z,942.66
2018-09-12T08:35:16.113Z,942.66
2018-09-12T08:36:16.094Z,942.65
2018-09-12T08:37:16.078Z,942.66
2018-09-12T08:38:16.065Z,942.63
2018-09-12T08:39:16.049Z,942.64
2018-09-12T08:40:16.067Z,942.68
2018-09-12T08:41:16.035Z,942.68
2018-09-12T08:42:16.139Z,942.63
2018-09-12T08:43:16.005Z,942.63
2018-09-12T08:44:15.996Z,942.64
2018-09-12T08:45:16.021Z,942.64
2018-09-12T08:46:15.985Z,942.65
2018-09-12T08:47:15.960Z,942.64
2018-09-12T08:48:15.949Z,942.60
2018-09-12T08:49:15.939Z,942.58
2018-09-12T08:50:15.927Z,942.61
2018-09-12T08:51:15.933Z,942.55
2018-09-12T08:52:15.918Z,942.57
2018-09-12T08:53:15.900Z,942.61
2018-09-12T08:54:15.883Z,942.57
2018-09-12T08:55:15.873Z,942.55
2018-09-12T08:56:15.877Z,942.58
2018-09-12T08:57:15.849Z,942.56
2018-09-12T08:58:15.846Z,942.59
2018-09-12T08:59:15.832Z,942.57
2018-09-12T09:00:15.838Z,942.65
2018-09-12T09:01:15.863Z,942.65
2018-09-12T09:02:15.794Z,942.61
2018-09-12T09:03:15.784Z,942.65
2018-09-12T09:04:15.782Z,942.67
2018-09-12T09:05:15.761Z,942.68
2018-09-12T09:06:15.766Z,942.68
2018-09-12T09:07:15.739Z,942.69
2018-09-12T09:08:15.731Z,942.69
2018-09-12T09:09:15.716Z,942.73
2018-09-12T09:10:15.715Z,942.71
2018-09-12T09:11:15.709Z,942.76
2018-09-12T09:12:15.684Z,942.67
2018-09-12T09:13:15.673Z,942.74
2018-09-12T09:14:15.661Z,942.75
2018-09-12T09:15:15.650Z,942.72
2018-09-12T09:16:15.663Z,942.72
2018-09-12T09:17:15.686Z,942.68
2018-09-12T09:18:15.615Z,942.72
2018-09-12T09:19:15.608Z,942.69
2018-09-12T09:20:15.629Z,942.67
2018-09-12T09:21:15.599Z,942.69
2018-09-12T09:22:15.597Z,942.69
2018-09-12T09:23:15.602Z,942.68
2018-09-12T09:24:15.552Z,942.67
2018-09-12T09:25:15.571Z,942.66
2018-09-12T09:26:15.550Z,942.66
2018-09-12T09:27:15.517Z,942.65
2018-09-12T09:28:15.571Z,942.67
2018-09-12T09:29:15.528Z,942.71
2018-09-12T09:30:15.485Z,942.68
2018-09-12T09:31:15.517Z,942.67
2018-09-12T09:32:15.462Z,942.67
2018-09-12T09:33:15.450Z,942.64
2018-09-12T09:34:15.447Z,942.67
2018-09-12T09:35:15.461Z,942.64
2018-09-12T09:36:15.468Z,942.67
2018-09-12T09:37:15.407Z,942.67
2018-09-12T09:38:15.396Z,942.64
2018-09-12T09:39:15.385Z,942.63
2018-09-12T09:40:15.381Z,942.62
2018-09-12T09:41:15.376Z,942.61
2018-09-12T09:42:15.350Z,942.61
2018-09-12T09:43:15.340Z,942.61
2018-09-12T09:44:15.329Z,942.60
2018-09-12T09:45:15.320Z,942.63
2018-09-12T09:46:15.330Z,942.60
2018-09-12T09:47:15.296Z,942.58
2018-09-12T09:48:15.347Z,942.58
2018-09-12T09:49:15.273Z,942.59
2018-09-12T09:50:15.263Z,942.55
2018-09-12T09:51:15.267Z,942.56
2018-09-12T09:52:15.257Z,942.57
2018-09-12T09:53:15.232Z,942.56
2018-09-12T09:54:15.217Z,942.53
2018-09-12T09:55:15.221Z,942.53
2018-09-12T09:56:15.214Z,942.52
2018-09-12T09:57:15.185Z,942.52
2018-09-12T09:58:15.196Z,942.54
2018-09-12T09:59:15.163Z,942.54
2018-09-12T10:00:15.190Z,942.51
2018-09-12T10:01:15.156Z,942.52
2018-09-12T10:02:15.132Z,942.50
2018-09-12T10:03:15.122Z,942.49
2018-09-12T10:04:15.120Z,942.50
2018-09-12T10:05:15.097Z,942.52
2018-09-12T10:06:15.120Z,942.54
2018-09-12T10:07:15.074Z,942.50
2018-09-12T10:08:15.065Z,942.54
2018-09-12T10:09:15.052Z,942.51
2018-09-12T10:10:15.053Z,942.53
2018-09-12T10:11:15.034Z,942.53
2018-09-12T10:12:15.036Z,942.54
2018-09-12T10:13:15.010Z,942.55
2018-09-12T10:14:14.999Z,942.59
2018-09-12T10:15:14.987Z,942.56
2018-09-12T10:16:14.985Z,942.58
2018-09-12T10:17:14.982Z,942.56
2018-09-12T10:18:14.954Z,942.53
2018-09-12T10:19:14.976Z,942.52
2018-09-12T10:20:14.932Z,942.52
2018-09-12T10:21:14.932Z,942.57
2018-09-12T10:22:14.925Z,942.54
2018-09-12T10:23:14.907Z,942.55
2018-09-12T10:24:14.924Z,942.50
2018-09-12T10:25:14.876Z,942.48
2018-09-12T10:26:14.865Z,942.51
2018-09-12T10:27:14.870Z,942.46
2018-09-12T10:28:14.841Z,942.45
2018-09-12T10:29:14.841Z,942.51
2018-09-12T10:30:14.821Z,942.44
2018-09-12T10:31:14.808Z,942.53
2018-09-12T10:32:14.815Z,942.46
2018-09-12T10:33:14.791Z,942.44
2018-09-12T10:34:14.778Z,942.40
2018-09-12T10:35:14.773Z,942.41
2018-09-12T10:36:14.754Z,942.40
2018-09-12T10:37:14.759Z,942.40
2018-09-12T10:38:14.731Z,942.37
2018-09-12T10:39:14.720Z,942.38
2018-09-12T10:40:14.709Z,942.39
2018-09-12T10:41:14.705Z,942.36
2018-09-12T10:42:14.701Z,942.36
2018-09-12T10:43:14.681Z,942.36
2018-09-12T10:44:14.670Z,942.37
2018-09-12T10:45:14.655Z,942.34
2018-09-12T10:46:14.643Z,942.34
2018-09-12T10:47:14.662Z,942.31
2018-09-12T10:48:14.619Z,942.38
2018-09-12T10:49:21.517Z,942.31
2018-09-12T10:50:14.719Z,942.33
2018-09-12T10:51:14.736Z,942.33
2018-09-12T10:52:14.753Z,942.31
2018-09-12T10:53:14.734Z,942.33
2018-09-12T10:54:14.654Z,942.34
2018-09-12T10:55:14.589Z,942.32
2018-09-12T10:56:14.704Z,942.30
2018-09-12T10:57:14.597Z,942.29
2018-09-12T10:58:14.579Z,942.28
2018-09-12T10:59:14.726Z,942.29
2018-09-12T11:00:14.517Z,942.26
2018-09-12T11:01:14.598Z,942.29
2018-09-12T11:02:14.496Z,942.33
2018-09-12T11:03:14.457Z,942.29
2018-09-12T11:04:14.505Z,942.30
2018-09-12T11:05:14.435Z,942.30
2018-09-12T11:06:14.425Z,942.31
2018-09-12T11:07:14.438Z,942.35
2018-09-12T11:08:14.401Z,942.30
2018-09-12T11:09:14.392Z,942.30
2018-09-12T11:10:14.378Z,942.29
2018-09-12T11:11:14.370Z,942.29
2018-09-12T11:12:14.370Z,942.27
2018-09-12T11:13:14.348Z,942.30
2018-09-12T11:14:14.334Z,942.30
2018-09-12T11:15:14.379Z,942.30
2018-09-12T11:16:14.310Z,942.18
2018-09-12T11:17:14.316Z,942.20
2018-09-12T11:18:14.288Z,942.20
2018-09-12T11:19:14.282Z,942.17
2018-09-12T11:20:14.266Z,942.14
2018-09-12T11:21:14.256Z,942.10
2018-09-12T11:22:14.274Z,942.10
2018-09-12T11:23:14.232Z,942.12
2018-09-12T11:24:14.230Z,942.13
2018-09-12T11:25:14.217Z,942.07
2018-09-12T11:26:14.206Z,942.09
2018-09-12T11:27:14.194Z,942.09
2018-09-12T11:28:14.199Z,942.03
2018-09-12T11:29:14.168Z,942.04
2018-09-12T11:30:14.157Z,942.06
2018-09-12T11:31:14.151Z,942.06
2018-09-12T11:32:14.134Z,942.07
2018-09-12T11:33:14.165Z,942.07
2018-09-12T11:34:14.149Z,942.10
2018-09-12T11:35:14.101Z,942.02
2018-09-12T11:36:14.095Z,942.05
2018-09-12T11:37:14.083Z,942.04
2018-09-12T11:38:14.083Z,942.03
2018-09-12T11:39:14.064Z,942.01
2018-09-12T11:40:14.152Z,942.08
2018-09-12T11:41:14.115Z,942.00
2018-09-12T11:42:14.032Z,942.03
2018-09-12T11:43:14.027Z,942.06
2018-09-12T11:44:14.003Z,942.03
2018-09-12T11:45:14.004Z,942.05
2018-09-12T11:46:13.980Z,941.99
2018-09-12T11:47:13.972Z,941.97
2018-09-12T11:48:13.977Z,941.96
2018-09-12T11:49:13.990Z,942.00
2018-09-12T11:50:13.937Z,941.93
2018-09-12T11:51:13.936Z,941.89
2018-09-12T11:52:13.919Z,941.85
2018-09-12T11:53:14.851Z,941.84
2018-09-12T11:54:13.891Z,941.92
2018-09-12T11:55:13.882Z,941.91
2018-09-12T11:56:13.892Z,941.93
2018-09-12T11:57:13.866Z,941.95
2018-09-12T11:58:13.865Z,941.96
2018-09-12T11:59:13.843Z,941.91
2018-09-12T12:00:13.829Z,941.87
2018-09-12T12:01:13.822Z,941.94
2018-09-12T12:02:13.895Z,941.92
2018-09-12T12:03:13.817Z,941.89
2018-09-12T12:04:13.787Z,941.86
2018-09-12T12:05:13.775Z,941.88
2018-09-12T12:06:13.835Z,941.89
2018-09-12T12:07:13.757Z,941.89
2018-09-12T12:08:13.767Z,941.85
2018-09-12T12:09:13.736Z,941.90
2018-09-12T12:10:13.718Z,941.85
2018-09-12T12:11:13.712Z,941.81
2018-09-12T12:12:13.702Z,941.82
2018-09-12T12:13:13.699Z,941.83
2018-09-12T12:14:13.673Z,941.84
2018-09-12T12:15:13.682Z,941.79
2018-09-12T12:16:13.653Z,941.81
2018-09-12T12:17:13.651Z,941.89
2018-09-12T12:18:13.648Z,941.76
2018-09-12T12:19:13.619Z,941.82
2018-09-12T12:20:13.609Z,941.78
2018-09-12T12:21:13.611Z,941.77
2018-09-12T12:22:13.590Z,941.72
2018-09-12T12:23:13.619Z,941.74
2018-09-12T12:24:13.565Z,941.71
2018-09-12T12:25:13.553Z,941.69
2018-09-12T12:26:13.543Z,941.73
2018-09-12T12:27:13.542Z,941.71
2018-09-12T12:28:13.542Z,941.70